Time;durP1;ratioP1;P1;durP2;ratioP2;P2;SDS_P1;SDS_P2;PMS_P1;PMS_P2;Temp;Humidity;BMP_temperature;BMP_pressure;BME280_temperature;BME280_humidity;BME280_pressure;Samples;Min_cycle;Max_cycle;Signal;HPM_P1;HPM_P2
2024/04/07 00:06:30;;;;;;;26.00;5.88;;;;;;;;;;20852326;28;20025;-46
2024/04/07 00:16:32;;;;;;;26.13;7.05;;;;;;;;;;20843641;28;20053;-46
2024/04/07 00:26:34;;;;;;;29.80;6.00;;;;;;;;;;20842775;28;20043;-45
2024/04/07 00:36:36;;;;;;;25.95;7.25;;;;;;;;;;20840585;28;20037;-45
2024/04/07 00:46:39;;;;;;;32.40;6.78;;;;;;;;;;20839847;28;20173;-45
2024/04/07 00:56:41;;;;;;;17.73;5.27;;;;;;;;;;20832232;28;20063;-45
2024/04/07 01:06:42;;;;;;;23.55;5.85;;;;;;;;;;20843497;28;20427;-46
2024/04/07 01:16:45;;;;;;;23.38;5.50;;;;;;;;;;20844891;28;20030;-47
2024/04/07 01:26:47;;;;;;;20.80;4.93;;;;;;;;;;20838136;28;20041;-46
2024/04/07 01:36:49;;;;;;;22.50;5.80;;;;;;;;;;20827362;28;20033;-44
2024/04/07 01:46:51;;;;;;;17.52;5.03;;;;;;;;;;20828120;28;20036;-46
2024/04/07 01:56:53;;;;;;;24.33;5.10;;;;;;;;;;20833583;28;20032;-45
2024/04/07 02:06:54;;;;;;;21.67;5.88;;;;;;;;;;20824231;28;20048;-46
2024/04/07 02:16:56;;;;;;;28.67;6.70;;;;;;;;;;20825851;28;20124;-45
2024/04/07 02:26:58;;;;;;;24.75;6.28;;;;;;;;;;20839011;28;20033;-45
2024/04/07 02:37:00;;;;;;;23.25;5.32;;;;;;;;;;20803731;28;20032;-46
2024/04/07 02:57:21;;;;;;;22.98;5.45;;;;;;;;;;20825248;28;20065;-44
2024/04/07 03:07:24;;;;;;;29.05;6.57;;;;;;;;;;20829348;28;20068;-47
2024/04/07 03:17:28;;;;;;;24.75;5.90;;;;;;;;;;20831453;28;20037;-46
2024/04/07 03:27:32;;;;;;;26.65;5.15;;;;;;;;;;20833684;28;20036;-45
2024/04/07 03:37:34;;;;;;;21.15;5.03;;;;;;;;;;20854460;28;20516;-44
2024/04/07 03:47:37;;;;;;;31.23;5.78;;;;;;;;;;20839423;28;20057;-45
2024/04/07 03:57:38;;;;;;;23.45;6.03;;;;;;;;;;20842265;28;20068;-43
2024/04/07 04:07:40;;;;;;;22.17;6.07;;;;;;;;;;20843626;28;20041;-45
2024/04/07 04:17:41;;;;;;;28.05;5.75;;;;;;;;;;20837467;28;20090;-46
2024/04/07 04:27:43;;;;;;;24.02;5.38;;;;;;;;;;20840538;28;20044;-45
2024/04/07 04:37:45;;;;;;;17.67;5.32;;;;;;;;;;20832550;28;20699;-44
2024/04/07 04:47:47;;;;;;;18.95;5.30;;;;;;;;;;20828098;28;20033;-43
2024/04/07 04:57:48;;;;;;;25.23;6.97;;;;;;;;;;20816231;28;20028;-43
2024/04/07 05:07:51;;;;;;;26.02;5.70;;;;;;;;;;20823702;28;20029;-42
2024/04/07 05:17:53;;;;;;;25.80;6.03;;;;;;;;;;20821224;28;20033;-43
2024/04/07 05:27:55;;;;;;;29.17;7.88;;;;;;;;;;20821461;28;20098;-43
2024/04/07 05:37:57;;;;;;;37.88;8.25;;;;;;;;;;20818097;28;20116;-43
2024/04/07 05:47:59;;;;;;;34.15;7.97;;;;;;;;;;20813072;28;20027;-47
2024/04/07 05:58:00;;;;;;;36.72;8.35;;;;;;;;;;20816927;28;20072;-45
2024/04/07 06:08:02;;;;;;;32.25;7.25;;;;;;;;;;20814409;28;20113;-44
2024/04/07 06:18:04;;;;;;;30.05;6.93;;;;;;;;;;20811094;28;20411;-55
2024/04/07 06:28:07;;;;;;;31.13;6.70;;;;;;;;;;20821357;28;20025;-53
2024/04/07 06:38:08;;;;;;;35.03;6.95;;;;;;;;;;20816431;28;20022;-55
2024/04/07 06:48:10;;;;;;;35.40;7.65;;;;;;;;;;20805209;28;20030;-55
2024/04/07 06:58:11;;;;;;;35.30;6.88;;;;;;;;;;20815954;28;20037;-53
2024/04/07 07:08:13;;;;;;;29.73;8.32;;;;;;;;;;20786104;28;20029;-52
2024/04/07 07:18:14;;;;;;;36.33;7.07;;;;;;;;;;20805541;28;20022;-58
2024/04/07 07:28:16;;;;;;;34.80;7.30;;;;;;;;;;20812508;28;20029;-50
2024/04/07 07:38:17;;;;;;;36.08;8.30;;;;;;;;;;20813992;28;20028;-51
2024/04/07 07:48:19;;;;;;;33.63;7.35;;;;;;;;;;20837449;28;20473;-50
2024/04/07 07:58:21;;;;;;;37.50;6.95;;;;;;;;;;20822460;28;20109;-51
2024/04/07 08:08:22;;;;;;;42.38;8.52;;;;;;;;;;20829882;28;20776;-53
2024/04/07 08:18:24;;;;;;;45.35;10.82;;;;;;;;;;20840747;28;20423;-54
2024/04/07 08:28:25;;;;;;;50.03;9.27;;;;;;;;;;20839931;28;20021;-53
2024/04/07 08:38:27;;;;;;;70.78;11.93;;;;;;;;;;20841770;28;20087;-52
2024/04/07 08:48:29;;;;;;;49.85;9.45;;;;;;;;;;20839869;28;20087;-52
2024/04/07 08:58:31;;;;;;;61.10;10.18;;;;;;;;;;20840872;28;20127;-51
2024/04/07 09:08:32;;;;;;;49.70;10.20;;;;;;;;;;20833308;28;20025;-51
2024/04/07 09:18:34;;;;;;;38.55;6.88;;;;;;;;;;20842253;28;20471;-51
2024/04/07 09:29:08;;;;;;;40.95;8.70;;;;;;;;;;20835782;28;20119;-52
2024/04/07 09:39:10;;;;;;;35.90;6.80;;;;;;;;;;20846473;28;20021;-51
2024/04/07 09:49:11;;;;;;;23.05;6.63;;;;;;;;;;20842335;28;20037;-51
2024/04/07 09:59:13;;;;;;;30.40;5.72;;;;;;;;;;20838007;28;20037;-52
2024/04/07 10:09:14;;;;;;;31.63;5.97;;;;;;;;;;20835689;28;20025;-52
2024/04/07 10:19:18;;;;;;;35.28;5.97;;;;;;;;;;20832967;28;20590;-51
2024/04/07 10:29:19;;;;;;;27.83;5.30;;;;;;;;;;20841866;28;20132;-53
2024/04/07 10:39:23;;;;;;;25.65;4.95;;;;;;;;;;20837327;28;20037;-50
2024/04/07 10:49:26;;;;;;;27.30;5.43;;;;;;;;;;20831864;28;20431;-51
2024/04/07 10:59:27;;;;;;;21.65;5.18;;;;;;;;;;20835439;28;20405;-53
2024/04/07 11:09:29;;;;;;;22.35;6.00;;;;;;;;;;20826690;28;20029;-53
2024/04/07 11:19:32;;;;;;;23.55;4.70;;;;;;;;;;20830757;28;20037;-52
2024/04/07 11:29:34;;;;;;;21.40;5.03;;;;;;;;;;20806044;28;20038;-50
2024/04/07 11:39:35;;;;;;;20.40;5.85;;;;;;;;;;20814291;28;20064;-52
2024/04/07 11:49:38;;;;;;;20.67;5.18;;;;;;;;;;20819273;28;20480;-51
2024/04/07 11:59:39;;;;;;;25.40;5.50;;;;;;;;;;20827646;28;20106;-52
2024/04/07 12:09:44;;;;;;;30.23;8.23;;;;;;;;;;20828058;28;20021;-53
2024/04/07 12:19:46;;;;;;;29.60;9.05;;;;;;;;;;20822444;28;20048;-51
2024/04/07 12:29:49;;;;;;;40.47;14.85;;;;;;;;;;20822090;28;20036;-52
2024/04/07 12:39:50;;;;;;;22.60;5.10;;;;;;;;;;20801090;28;20038;-51
2024/04/07 12:49:53;;;;;;;24.63;4.65;;;;;;;;;;20800810;28;20033;-54
2024/04/07 12:59:54;;;;;;;22.42;4.15;;;;;;;;;;20814918;28;20037;-54
2024/04/07 13:09:56;;;;;;;19.52;5.60;;;;;;;;;;20823294;28;20431;-53
2024/04/07 13:19:57;;;;;;;17.85;3.47;;;;;;;;;;20806850;28;20095;-54
2024/04/07 13:29:59;;;;;;;13.70;3.65;;;;;;;;;;20812417;28;20037;-50
2024/04/07 13:40:01;;;;;;;16.83;4.53;;;;;;;;;;20816563;28;20244;-50
2024/04/07 13:50:02;;;;;;;19.17;4.82;;;;;;;;;;20821873;28;20033;-52
2024/04/07 14:00:04;;;;;;;13.48;3.00;;;;;;;;;;20801918;28;20045;-53
2024/04/07 14:10:07;;;;;;;16.33;3.60;;;;;;;;;;20815553;28;20040;-53
2024/04/07 14:20:09;;;;;;;19.77;4.55;;;;;;;;;;20815471;28;20033;-53
2024/04/07 14:30:11;;;;;;;16.48;3.08;;;;;;;;;;20817545;28;20026;-58
2024/04/07 14:40:12;;;;;;;14.23;3.55;;;;;;;;;;20811912;28;20091;-51
2024/04/07 14:50:14;;;;;;;17.20;2.88;;;;;;;;;;20812339;28;20029;-53
2024/04/07 15:00:16;;;;;;;14.63;4.10;;;;;;;;;;20813373;28;20033;-50
2024/04/07 15:10:19;;;;;;;17.10;3.50;;;;;;;;;;20807292;28;20040;-52
2024/04/07 15:20:21;;;;;;;14.95;3.63;;;;;;;;;;20799211;28;20059;-52
2024/04/07 15:30:23;;;;;;;16.55;3.63;;;;;;;;;;20836458;28;20517;-50
2024/04/07 15:40:24;;;;;;;14.13;3.10;;;;;;;;;;20824919;28;20033;-51
2024/04/07 15:50:27;;;;;;;16.00;3.67;;;;;;;;;;20830667;28;20156;-51
2024/04/07 16:00:29;;;;;;;17.38;3.60;;;;;;;;;;20819591;28;20030;-52
2024/04/07 16:10:31;;;;;;;14.85;3.78;;;;;;;;;;20819972;28;20029;-52
2024/04/07 16:20:33;;;;;;;11.25;2.75;;;;;;;;;;20801356;28;20026;-50
2024/04/07 16:30:35;;;;;;;17.27;3.10;;;;;;;;;;20828126;28;20033;-51
2024/04/07 16:40:37;;;;;;;13.10;3.00;;;;;;;;;;20818554;28;20033;-51
2024/04/07 16:50:38;;;;;;;16.58;4.10;;;;;;;;;;20826025;28;20095;-51
2024/04/07 17:00:42;;;;;;;10.82;2.63;;;;;;;;;;20813020;28;20505;-52
2024/04/07 17:10:44;;;;;;;16.65;2.97;;;;;;;;;;20823351;28;20064;-51
2024/04/07 17:20:46;;;;;;;14.82;3.33;;;;;;;;;;20822794;28;20037;-51
2024/04/07 17:30:48;;;;;;;15.63;3.15;;;;;;;;;;20826322;28;20040;-51
2024/04/07 17:40:51;;;;;;;23.20;4.63;;;;;;;;;;20806989;28;20044;-51
2024/04/07 17:50:53;;;;;;;16.67;3.17;;;;;;;;;;20820264;28;20033;-51
2024/04/07 18:00:55;;;;;;;17.63;3.05;;;;;;;;;;20812501;28;20160;-50
2024/04/07 18:10:57;;;;;;;10.95;2.75;;;;;;;;;;20819349;28;20028;-51
2024/04/07 18:21:01;;;;;;;;;;;;;;;;;;20817580;28;20484;-51
2024/04/07 18:31:03;;;;;;;11.48;3.60;;;;;;;;;;20815005;28;19917;-51
2024/04/07 18:41:05;;;;;;;11.00;3.10;;;;;;;;;;20817107;28;20459;-53
2024/04/07 18:51:08;;;;;;;11.15;2.90;;;;;;;;;;20813673;28;20095;-53
2024/04/07 19:01:16;;;;;;;9.48;2.83;;;;;;;;;;20808622;28;20022;-51
2024/04/07 19:11:17;;;;;;;10.40;2.58;;;;;;;;;;20798465;28;20065;-51
2024/04/07 19:22:58;;;;;;;7.97;2.15;;;;;;;;;;22618995;26;20456;-50
2024/04/07 19:33:00;;;;;;;11.95;2.42;;;;;;;;;;22494838;26;20055;-52
2024/04/07 19:53:59;;;;;;;6.32;2.30;;;;;;;;;;22454295;26;20079;-51
2024/04/07 20:04:00;;;;;;;10.27;2.65;;;;;;;;;;22284824;21;19997;-51
2024/04/07 20:24:59;;;;;;;6.15;1.98;;;;;;;;;;22066622;26;20095;-53
2024/04/07 20:35:01;;;;;;;5.97;2.00;;;;;;;;;;21991146;26;20006;-49
2024/04/07 20:45:03;;;;;;;10.85;2.70;;;;;;;;;;21968525;26;20002;-49
2024/04/07 20:55:06;;;;;;;8.50;1.52;;;;;;;;;;21998243;26;20002;-49
2024/04/07 21:05:08;;;;;;;5.68;1.88;;;;;;;;;;21980209;26;20002;-48
2024/04/07 21:15:09;;;;;;;3.13;1.55;;;;;;;;;;21995638;26;20006;-46
2024/04/07 21:25:12;;;;;;;4.25;1.42;;;;;;;;;;21996179;26;20001;-46
2024/04/07 21:35:14;;;;;;;11.27;1.30;;;;;;;;;;21982481;26;20081;-46
2024/04/07 21:45:15;;;;;;;4.03;1.00;;;;;;;;;;21952698;26;20006;-43
2024/04/07 21:55:18;;;;;;;9.95;2.42;;;;;;;;;;22007300;26;20016;-44
2024/04/07 22:05:19;;;;;;;6.70;1.38;;;;;;;;;;21997358;26;20025;-48
2024/04/07 22:15:21;;;;;;;5.45;1.38;;;;;;;;;;21980496;26;20143;-48
2024/04/07 22:25:22;;;;;;;3.08;1.05;;;;;;;;;;21995680;26;20001;-49
2024/04/07 22:35:25;;;;;;;3.90;1.25;;;;;;;;;;21983407;26;20075;-49
2024/04/07 22:45:26;;;;;;;5.00;1.20;;;;;;;;;;21998193;26;20002;-48
2024/04/07 22:55:28;;;;;;;5.03;1.55;;;;;;;;;;21979413;26;20013;-44
2024/04/07 23:05:30;;;;;;;3.00;0.75;;;;;;;;;;22010771;26;20079;-45
2024/04/07 23:15:32;;;;;;;6.40;0.90;;;;;;;;;;21942577;26;20460;-44
2024/04/07 23:25:35;;;;;;;4.07;1.35;;;;;;;;;;21956370;26;20005;-44
2024/04/07 23:35:37;;;;;;;5.68;1.10;;;;;;;;;;21958562;26;20809;-48
2024/04/07 23:45:38;;;;;;;2.95;1.48;;;;;;;;;;21962869;26;20045;-44
2024/04/07 23:55:41;;;;;;;5.07;1.30;;;;;;;;;;21942542;26;20006;-47
